createdAt,value
2023-04-15T00:01:19.498Z,2.70
2023-04-15T00:03:58.731Z,2.65
2023-04-15T00:06:26.349Z,2.40
2023-04-15T00:08:54.360Z,2.70
2023-04-15T00:11:24.508Z,2.70
2023-04-15T00:13:51.844Z,2.70
2023-04-15T00:16:21.501Z,2.65
2023-04-15T00:18:49.130Z,3.13
2023-04-15T00:21:18.810Z,2.58
2023-04-15T00:23:49.708Z,2.72
2023-04-15T00:26:19.457Z,2.72
2023-04-15T00:28:50.498Z,2.80
2023-04-15T00:31:18.075Z,2.70
2023-04-15T00:33:46.781Z,2.53
2023-04-15T00:36:14.646Z,2.88
2023-04-15T00:38:42.071Z,2.67
2023-04-15T00:41:11.260Z,2.70
2023-04-15T00:43:38.448Z,2.78
2023-04-15T00:46:06.866Z,2.50
2023-04-15T00:48:36.973Z,3.03
2023-04-15T00:51:04.670Z,2.42
2023-04-15T00:53:33.223Z,2.97
2023-04-15T00:56:02.833Z,2.65
2023-04-15T00:58:30.186Z,2.60
2023-04-15T01:00:59.940Z,2.55
2023-04-15T01:03:27.975Z,2.58
2023-04-15T01:05:58.359Z,2.53
2023-04-15T01:08:31.691Z,2.80
2023-04-15T01:11:02.249Z,2.30
2023-04-15T01:13:34.276Z,2.70
2023-04-15T01:16:03.073Z,2.50
2023-04-15T01:18:31.536Z,2.50
2023-04-15T01:21:07.741Z,2.60
2023-04-15T01:23:39.458Z,2.80
2023-04-15T01:26:09.213Z,2.92
2023-04-15T01:28:37.752Z,2.67
2023-04-15T01:31:13.593Z,2.58
2023-04-15T01:33:43.593Z,2.30
2023-04-15T01:36:11.063Z,2.83
2023-04-15T01:38:43.216Z,2.63
2023-04-15T01:41:10.473Z,2.47
2023-04-15T01:43:37.937Z,2.65
2023-04-15T01:46:06.164Z,2.53
2023-04-15T01:48:35.890Z,2.50
2023-04-15T01:51:04.270Z,2.88
2023-04-15T01:53:31.642Z,2.60
2023-04-15T01:55:59.006Z,2.40
2023-04-15T01:58:28.798Z,2.53
2023-04-15T02:00:56.615Z,2.80
2023-04-15T02:03:25.684Z,2.83
2023-04-15T02:05:53.555Z,2.20
2023-04-15T02:08:21.746Z,2.50
2023-04-15T02:10:53.575Z,2.72
2023-04-15T02:13:20.885Z,2.85
2023-04-15T02:15:50.705Z,2.75
2023-04-15T02:18:20.044Z,2.80
2023-04-15T02:20:48.254Z,2.95
2023-04-15T02:23:15.670Z,3.10
2023-04-15T02:25:53.936Z,2.60
2023-04-15T02:28:24.015Z,2.80
2023-04-15T02:30:52.806Z,2.30
2023-04-15T02:33:23.985Z,2.53
2023-04-15T02:35:51.548Z,2.80
2023-04-15T02:38:18.933Z,2.45
2023-04-15T02:40:50.259Z,2.20
2023-04-15T02:43:17.597Z,2.50
2023-04-15T02:45:47.822Z,2.40
2023-04-15T02:48:19.449Z,2.70
2023-04-15T02:50:49.350Z,2.65
2023-04-15T02:53:17.677Z,2.67
2023-04-15T02:55:46.356Z,2.55
2023-04-15T02:58:13.666Z,2.45
2023-04-15T03:00:43.405Z,2.58
2023-04-15T03:03:15.197Z,2.88
2023-04-15T03:05:45.058Z,2.40
2023-04-15T03:08:14.994Z,2.90
2023-04-15T03:10:44.736Z,2.78
2023-04-15T03:13:14.316Z,2.88
2023-04-15T03:15:42.027Z,2.33
2023-04-15T03:18:09.417Z,2.22
2023-04-15T03:20:37.225Z,2.60
2023-04-15T03:23:04.777Z,2.53
2023-04-15T03:25:35.383Z,2.63
2023-04-15T03:28:05.559Z,2.25
2023-04-15T03:30:33.664Z,2.42
2023-04-15T03:33:03.232Z,2.10
2023-04-15T03:35:33.102Z,2.17
2023-04-15T03:38:03.526Z,2.47
2023-04-15T03:40:31.177Z,2.15
2023-04-15T03:42:58.344Z,2.80
2023-04-15T03:45:25.783Z,2.10
2023-04-15T03:47:53.042Z,2.30
2023-04-15T03:50:20.628Z,2.97
2023-04-15T03:52:51.334Z,2.50
2023-04-15T03:55:18.623Z,2.22
2023-04-15T03:57:46.486Z,2.17
2023-04-15T04:00:13.806Z,2.40
2023-04-15T04:02:41.457Z,2.25
2023-04-15T04:05:09.316Z,2.38
2023-04-15T04:07:36.919Z,2.20
2023-04-15T04:10:04.403Z,2.50
2023-04-15T04:12:31.827Z,2.22
2023-04-15T04:15:01.699Z,2.22
2023-04-15T04:17:31.512Z,1.92
2023-04-15T04:19:58.806Z,2.53
2023-04-15T04:22:26.135Z,2.08
2023-04-15T04:24:55.667Z,2.45
2023-04-15T04:27:23.003Z,2.30
2023-04-15T04:29:50.259Z,2.10
2023-04-15T04:32:17.473Z,2.40
2023-04-15T04:34:49.440Z,2.45
2023-04-15T04:37:16.774Z,2.17
2023-04-15T04:39:43.977Z,2.20
2023-04-15T04:42:16.006Z,2.30
2023-04-15T04:44:47.785Z,2.28
2023-04-15T04:47:17.553Z,2.33
2023-04-15T04:49:47.094Z,2.00
2023-04-15T04:52:14.373Z,2.03
2023-04-15T04:54:41.635Z,2.53
2023-04-15T04:57:15.608Z,1.98
2023-04-15T04:59:43.657Z,2.00
2023-04-15T05:02:11.381Z,2.00
2023-04-15T05:04:41.787Z,1.77
2023-04-15T05:07:13.790Z,2.17
2023-04-15T05:09:43.099Z,1.90
2023-04-15T05:12:14.882Z,2.10
2023-04-15T05:14:42.371Z,2.35
2023-04-15T05:17:11.128Z,2.63
2023-04-15T05:19:38.385Z,2.30
2023-04-15T05:22:08.296Z,2.47
2023-04-15T05:24:35.536Z,2.50
2023-04-15T05:27:02.942Z,2.35
2023-04-15T05:29:30.580Z,2.45
2023-04-15T05:31:57.946Z,2.80
2023-04-15T05:34:25.302Z,2.80
2023-04-15T05:36:52.615Z,2.75
2023-04-15T05:39:19.926Z,3.40
2023-04-15T05:41:47.113Z,2.58
2023-04-15T05:44:14.361Z,3.03
2023-04-15T05:46:54.348Z,2.78
2023-04-15T05:49:31.468Z,2.85
2023-04-15T05:51:59.577Z,2.60
2023-04-15T05:54:29.225Z,2.58
2023-04-15T05:56:57.651Z,2.60
2023-04-15T05:59:24.907Z,3.15
2023-04-15T06:01:52.928Z,2.85
2023-04-15T06:04:21.902Z,3.10
2023-04-15T06:06:51.318Z,2.80
2023-04-15T06:09:18.619Z,2.85
2023-04-15T06:11:45.979Z,2.63
2023-04-15T06:14:18.033Z,2.83
2023-04-15T06:16:45.413Z,3.77
2023-04-15T06:19:15.023Z,2.80
2023-04-15T06:21:42.633Z,2.85
2023-04-15T06:24:12.711Z,2.85
2023-04-15T06:26:40.054Z,3.20
2023-04-15T06:29:09.816Z,3.13
2023-04-15T06:31:40.142Z,3.10
2023-04-15T06:34:07.764Z,3.65
2023-04-15T06:36:39.404Z,3.40
2023-04-15T06:39:07.075Z,3.03
2023-04-15T06:41:35.411Z,3.67
2023-04-15T06:44:07.801Z,2.97
2023-04-15T06:46:37.388Z,3.50
2023-04-15T06:49:05.423Z,3.78
2023-04-15T06:51:34.571Z,3.33
2023-04-15T06:54:02.510Z,3.25
2023-04-15T06:56:29.980Z,2.97
2023-04-15T06:58:57.339Z,3.03
2023-04-15T07:01:24.781Z,3.15
2023-04-15T07:03:54.459Z,2.85
2023-04-15T07:06:22.285Z,2.85
2023-04-15T07:08:52.741Z,3.90
2023-04-15T07:11:21.152Z,3.10
2023-04-15T07:13:48.644Z,3.10
2023-04-15T07:16:15.987Z,2.80
2023-04-15T07:18:43.508Z,3.25
2023-04-15T07:21:11.643Z,2.90
2023-04-15T07:23:38.937Z,3.20
2023-04-15T07:26:08.949Z,2.90
2023-04-15T07:28:36.236Z,2.72
2023-04-15T07:31:05.889Z,3.70
2023-04-15T07:33:33.363Z,3.03
2023-04-15T07:36:02.765Z,2.72
2023-04-15T07:38:30.171Z,2.65
2023-04-15T07:40:58.160Z,5.20
2023-04-15T07:43:27.051Z,8.35
2023-04-15T07:45:55.327Z,9.40
2023-04-15T07:48:25.649Z,10.85
2023-04-15T07:50:52.946Z,10.45
2023-04-15T07:53:20.676Z,9.63
2023-04-15T07:55:49.992Z,10.23
2023-04-15T07:58:17.507Z,9.15
2023-04-15T08:00:44.906Z,7.97
2023-04-15T08:03:15.697Z,7.07
2023-04-15T08:05:43.033Z,6.75
2023-04-15T08:08:10.563Z,6.65
2023-04-15T08:10:37.757Z,6.28
2023-04-15T08:13:05.392Z,6.22
2023-04-15T08:15:33.228Z,6.88
2023-04-15T08:18:01.372Z,6.63
2023-04-15T08:20:33.949Z,7.60
2023-04-15T08:23:01.113Z,5.88
2023-04-15T08:25:29.295Z,5.30
2023-04-15T08:27:57.960Z,5.95
2023-04-15T08:30:27.967Z,5.80
2023-04-15T08:32:55.358Z,4.32
2023-04-15T08:35:24.864Z,4.88
2023-04-15T08:37:57.192Z,4.97
2023-04-15T08:40:43.588Z,4.18
2023-04-15T08:43:28.448Z,4.53
2023-04-15T08:45:58.953Z,3.27
2023-04-15T08:48:32.901Z,4.38
2023-04-15T08:51:01.241Z,3.35
2023-04-15T08:53:30.259Z,3.58
2023-04-15T08:56:05.827Z,3.03
2023-04-15T09:01:01.809Z,3.50
2023-04-15T09:03:32.500Z,3.08
2023-04-15T09:06:04.013Z,2.72
2023-04-15T09:08:34.960Z,3.05
2023-04-15T09:11:07.570Z,2.75
2023-04-15T09:13:41.072Z,2.80
2023-04-15T09:16:10.831Z,2.90
2023-04-15T09:18:46.150Z,2.60
2023-04-15T09:21:15.814Z,3.10
2023-04-15T09:23:59.320Z,3.13
2023-04-15T09:26:37.906Z,2.60
2023-04-15T09:29:09.907Z,3.03
2023-04-15T09:31:37.956Z,2.50
2023-04-15T09:34:13.888Z,3.03
2023-04-15T09:36:51.139Z,2.38
2023-04-15T09:39:18.595Z,2.05
2023-04-15T09:41:46.030Z,1.90
2023-04-15T09:44:24.180Z,2.38
2023-04-15T09:46:51.911Z,2.28
2023-04-15T09:49:19.899Z,2.13
2023-04-15T09:52:01.428Z,2.00
2023-04-15T09:54:38.790Z,2.00
2023-04-15T09:57:07.719Z,2.35
2023-04-15T09:59:35.966Z,2.40
2023-04-15T10:02:06.182Z,1.92
2023-04-15T10:04:41.480Z,2.00
2023-04-15T10:07:12.269Z,2.10
2023-04-15T10:09:39.772Z,2.10
2023-04-15T10:12:07.467Z,1.92
2023-04-15T10:14:38.737Z,2.10
2023-04-15T10:17:09.078Z,2.40
2023-04-15T10:19:40.488Z,2.20
2023-04-15T10:22:08.378Z,1.90
2023-04-15T10:24:37.297Z,1.73
2023-04-15T10:27:08.367Z,2.00
2023-04-15T10:29:36.512Z,2.55
2023-04-15T10:32:06.865Z,2.00
2023-04-15T10:34:35.734Z,1.98
2023-04-15T10:37:05.838Z,2.00
2023-04-15T10:39:34.108Z,2.15
2023-04-15T10:42:12.903Z,2.13
2023-04-15T10:44:44.946Z,2.10
2023-04-15T10:47:22.069Z,1.80
2023-04-15T10:49:52.435Z,2.00
2023-04-15T10:52:27.945Z,2.00
2023-04-15T10:55:26.149Z,1.65
2023-04-15T10:57:55.054Z,1.80
2023-04-15T11:00:26.787Z,1.73
2023-04-15T11:03:07.748Z,1.55
2023-04-15T11:05:41.636Z,1.80
2023-04-15T11:08:10.289Z,1.95
2023-04-15T11:10:40.285Z,1.50
2023-04-15T11:13:13.262Z,1.73
2023-04-15T11:15:51.152Z,1.90
2023-04-15T11:18:31.220Z,1.90
2023-04-15T11:21:04.707Z,2.30
2023-04-15T11:26:00.441Z,1.90
2023-04-15T11:28:33.470Z,2.50
2023-04-15T11:31:11.928Z,2.95
2023-04-15T11:33:46.574Z,2.63
2023-04-15T11:36:15.606Z,2.38
2023-04-15T11:38:44.808Z,2.30
2023-04-15T11:41:12.451Z,2.47
2023-04-15T11:43:39.764Z,2.28
2023-04-15T11:46:08.609Z,2.55
2023-04-15T11:48:37.051Z,2.05
2023-04-15T11:51:07.150Z,2.70
2023-04-15T11:53:39.266Z,2.53
2023-04-15T11:56:08.014Z,2.58
2023-04-15T11:58:39.185Z,2.72
2023-04-15T12:01:09.619Z,3.33
2023-04-15T12:03:39.735Z,2.60
2023-04-15T12:06:12.730Z,2.90
2023-04-15T12:09:01.140Z,2.75
2023-04-15T12:11:35.814Z,3.20
2023-04-15T12:14:11.461Z,2.70
2023-04-15T12:16:50.923Z,2.85
2023-04-15T12:19:46.250Z,2.72
2023-04-15T12:22:16.129Z,2.72
2023-04-15T12:24:47.035Z,3.08
2023-04-15T12:27:16.855Z,2.30
2023-04-15T12:29:44.504Z,2.58
2023-04-15T12:32:13.760Z,2.50
2023-04-15T12:34:52.439Z,2.47
2023-04-15T12:37:20.167Z,2.55
2023-04-15T12:39:49.875Z,2.85
2023-04-15T12:42:17.730Z,2.38
2023-04-15T12:44:45.339Z,2.53
2023-04-15T12:47:12.900Z,2.53
2023-04-15T12:49:40.875Z,2.83
2023-04-15T12:52:08.557Z,2.50
2023-04-15T12:54:37.236Z,2.42
2023-04-15T12:57:07.811Z,3.17
2023-04-15T12:59:35.852Z,2.55
2023-04-15T13:02:03.985Z,2.25
2023-04-15T13:04:32.018Z,2.20
2023-04-15T13:06:59.432Z,2.03
2023-04-15T13:09:29.605Z,2.22
2023-04-15T13:11:57.675Z,2.10
2023-04-15T13:14:25.547Z,2.25
2023-04-15T13:16:53.746Z,2.38
2023-04-15T13:19:21.332Z,2.10
2023-04-15T13:21:49.033Z,2.15
2023-04-15T13:24:17.480Z,1.80
2023-04-15T13:26:44.932Z,1.98
2023-04-15T13:29:14.646Z,2.20
2023-04-15T13:31:44.180Z,2.00
2023-04-15T13:34:11.617Z,2.00
2023-04-15T13:36:38.806Z,1.77
2023-04-15T13:39:08.581Z,1.73
2023-04-15T13:41:37.476Z,1.88
2023-04-15T13:44:07.212Z,1.90
2023-04-15T13:46:34.804Z,1.80
2023-04-15T13:49:02.978Z,2.30
2023-04-15T13:51:32.960Z,2.28
2023-04-15T13:54:04.953Z,1.83
2023-04-15T13:56:32.578Z,1.80
2023-04-15T13:59:02.254Z,2.15
2023-04-15T14:01:30.144Z,2.00
2023-04-15T14:03:59.822Z,1.60
2023-04-15T14:06:28.482Z,1.70
2023-04-15T14:08:58.126Z,2.03
2023-04-15T14:11:25.427Z,1.80
2023-04-15T14:13:52.888Z,1.67
2023-04-15T14:16:20.583Z,1.50
2023-04-15T14:18:48.260Z,1.60
2023-04-15T14:21:16.026Z,1.70
2023-04-15T14:23:45.800Z,1.70
2023-04-15T14:26:15.504Z,1.65
2023-04-15T14:28:45.675Z,1.90
2023-04-15T14:31:18.755Z,1.60
2023-04-15T14:33:51.889Z,1.75
2023-04-15T14:36:21.450Z,1.60
2023-04-15T14:38:48.855Z,1.50
2023-04-15T14:41:16.327Z,1.60
2023-04-15T14:43:43.755Z,1.80
2023-04-15T14:46:14.537Z,1.63
2023-04-15T14:48:45.058Z,1.40
2023-04-15T14:51:21.669Z,1.50
2023-04-15T14:53:51.882Z,1.70
2023-04-15T14:56:19.101Z,1.75
2023-04-15T14:58:49.302Z,1.50
2023-04-15T15:01:19.454Z,1.58
2023-04-15T15:03:47.395Z,1.70
2023-04-15T15:06:20.849Z,1.58
2023-04-15T15:08:49.376Z,1.60
2023-04-15T15:11:17.341Z,1.50
2023-04-15T15:13:44.549Z,1.85
2023-04-15T15:16:14.320Z,1.67
2023-04-15T15:18:44.346Z,1.50
2023-04-15T15:21:15.495Z,1.60
2023-04-15T15:23:43.258Z,1.73
2023-04-15T15:26:15.405Z,1.65
2023-04-15T15:28:43.084Z,1.25
2023-04-15T15:31:10.427Z,1.63
2023-04-15T15:33:37.698Z,1.45
2023-04-15T15:36:05.279Z,1.30
2023-04-15T15:38:32.497Z,1.70
2023-04-15T15:41:02.177Z,1.60
2023-04-15T15:43:29.571Z,1.50
2023-04-15T15:45:57.269Z,1.42
2023-04-15T15:48:24.991Z,1.55
2023-04-15T15:50:53.513Z,1.92
2023-04-15T15:53:24.284Z,2.22
2023-04-15T15:55:53.755Z,1.80
2023-04-15T15:58:21.692Z,1.90
2023-04-15T16:00:49.641Z,1.75
2023-04-15T16:03:17.502Z,2.42
2023-04-15T16:05:45.972Z,2.55
2023-04-15T16:08:13.202Z,1.60
2023-04-15T16:11:01.830Z,1.60
2023-04-15T16:13:34.038Z,1.70
2023-04-15T16:16:06.941Z,1.65
2023-04-15T16:18:35.440Z,1.73
2023-04-15T16:21:02.759Z,1.52
2023-04-15T16:23:31.256Z,1.67
2023-04-15T16:25:58.961Z,1.50
2023-04-15T16:28:27.402Z,1.58
2023-04-15T16:30:57.032Z,1.45
2023-04-15T16:33:24.288Z,2.30
2023-04-15T16:35:56.663Z,2.22
2023-04-15T16:38:24.268Z,2.25
2023-04-15T16:40:53.991Z,2.53
2023-04-15T16:43:23.500Z,2.50
2023-04-15T16:45:51.409Z,2.10
2023-04-15T16:48:20.532Z,2.33
2023-04-15T16:50:49.321Z,2.40
2023-04-15T16:53:17.176Z,2.05
2023-04-15T16:55:45.115Z,2.35
2023-04-15T16:58:12.727Z,2.08
2023-04-15T17:00:42.553Z,2.10
2023-04-15T17:03:12.809Z,2.03
2023-04-15T17:05:42.223Z,2.05
2023-04-15T17:08:11.725Z,2.08
2023-04-15T17:10:38.947Z,2.05
2023-04-15T17:13:08.538Z,2.15
2023-04-15T17:15:35.776Z,1.67
2023-04-15T17:18:04.972Z,1.60
2023-04-15T17:20:34.408Z,1.92
2023-04-15T17:23:01.871Z,1.85
2023-04-15T17:25:30.909Z,1.95
2023-04-15T17:27:58.240Z,1.90
2023-04-15T17:30:25.517Z,2.08
2023-04-15T17:32:55.407Z,1.83
2023-04-15T17:35:26.896Z,1.98
2023-04-15T17:37:54.163Z,1.75
2023-04-15T17:40:21.703Z,1.85
2023-04-15T17:42:49.410Z,1.85
2023-04-15T17:45:16.714Z,1.85
2023-04-15T17:47:44.187Z,1.70
2023-04-15T17:50:11.612Z,1.80
2023-04-15T17:52:38.864Z,2.15
2023-04-15T17:55:07.443Z,1.83
2023-04-15T17:57:37.107Z,1.70
2023-04-15T18:00:07.175Z,1.65
2023-04-15T18:02:40.808Z,1.70
2023-04-15T18:05:08.817Z,1.40
2023-04-15T18:07:36.639Z,1.88
2023-04-15T18:10:04.666Z,1.73
2023-04-15T18:12:32.032Z,1.80
2023-04-15T18:15:02.278Z,2.03
2023-04-15T18:17:30.365Z,1.73
2023-04-15T18:19:57.741Z,1.50
2023-04-15T18:22:25.009Z,1.55
2023-04-15T18:24:52.466Z,1.60
2023-04-15T18:27:20.473Z,2.00
2023-04-15T18:29:50.875Z,1.65
2023-04-15T18:32:18.380Z,1.60
2023-04-15T18:34:45.657Z,1.65
2023-04-15T18:37:16.037Z,1.85
2023-04-15T18:39:43.601Z,1.70
2023-04-15T18:42:15.998Z,1.50
2023-04-15T18:44:45.862Z,1.63
2023-04-15T18:47:13.181Z,1.40
2023-04-15T18:49:41.509Z,1.60
2023-04-15T18:52:12.615Z,1.80
2023-04-15T18:54:42.346Z,1.70
2023-04-15T18:57:09.723Z,1.52
2023-04-15T18:59:37.252Z,1.40
2023-04-15T19:02:07.315Z,1.35
2023-04-15T19:04:37.403Z,1.65
2023-04-15T19:07:09.116Z,2.13
2023-04-15T19:09:37.885Z,1.40
2023-04-15T19:12:05.380Z,1.60
2023-04-15T19:14:35.334Z,1.52
2023-04-15T19:17:04.881Z,1.40
2023-04-15T19:19:32.400Z,1.60
2023-04-15T19:22:03.371Z,1.58
2023-04-15T19:24:33.777Z,1.30
2023-04-15T19:27:01.699Z,1.52
2023-04-15T19:29:29.642Z,1.35
2023-04-15T19:31:57.085Z,1.63
2023-04-15T19:34:25.064Z,1.45
2023-04-15T19:36:52.683Z,1.40
2023-04-15T19:39:20.694Z,1.50
2023-04-15T19:41:48.496Z,1.40
2023-04-15T19:44:15.993Z,1.60
2023-04-15T19:46:50.029Z,1.40
2023-04-15T19:49:18.488Z,1.40
2023-04-15T19:51:50.153Z,1.50
2023-04-15T19:54:18.297Z,1.70
2023-04-15T19:56:47.981Z,1.50
2023-04-15T19:59:15.139Z,1.55
2023-04-15T20:01:44.792Z,1.40
2023-04-15T20:04:12.348Z,1.33
2023-04-15T20:06:39.579Z,1.60
2023-04-15T20:09:11.057Z,1.60
2023-04-15T20:12:48.078Z,1.50
2023-04-15T20:14:26.551Z,1.35
2023-04-15T20:16:53.816Z,1.40
2023-04-15T20:19:23.587Z,1.10
2023-04-15T20:21:52.545Z,1.60
2023-04-15T20:24:21.403Z,1.45
2023-04-15T20:26:51.114Z,1.42
2023-04-15T20:29:18.403Z,1.80
2023-04-15T20:31:45.712Z,1.60
2023-04-15T20:34:13.380Z,1.70
2023-04-15T20:36:40.758Z,1.77
2023-04-15T20:39:15.879Z,1.33
2023-04-15T20:41:44.188Z,1.75
2023-04-15T20:44:11.433Z,1.45
2023-04-15T20:46:38.692Z,1.35
2023-04-15T20:49:09.857Z,1.40
2023-04-15T20:51:39.892Z,1.50
2023-04-15T20:54:07.232Z,1.40
2023-04-15T20:56:34.659Z,1.48
2023-04-15T20:59:02.356Z,1.50
2023-04-15T21:01:32.092Z,1.60
2023-04-15T21:03:59.400Z,1.55
2023-04-15T21:06:27.563Z,1.40
2023-04-15T21:08:58.628Z,1.55
2023-04-15T21:11:46.363Z,1.38
2023-04-15T21:14:16.611Z,1.48
2023-04-15T21:16:46.068Z,1.55
2023-04-15T21:19:13.311Z,1.50
2023-04-15T21:21:40.603Z,1.38
2023-04-15T21:24:08.091Z,1.40
2023-04-15T21:26:36.109Z,1.30
2023-04-15T21:29:03.818Z,1.10
2023-04-15T21:31:31.326Z,1.55
2023-04-15T21:33:58.506Z,1.55
2023-04-15T21:36:26.891Z,1.25
2023-04-15T21:38:54.881Z,1.30
2023-04-15T21:41:27.232Z,1.60
2023-04-15T21:43:54.556Z,1.60
2023-04-15T21:46:32.488Z,1.55
2023-04-15T21:49:00.753Z,1.58
2023-04-15T21:51:28.032Z,1.50
2023-04-15T21:53:55.977Z,1.63
2023-04-15T21:56:24.245Z,1.73
2023-04-15T21:58:58.554Z,1.40
2023-04-15T22:01:27.312Z,1.50
2023-04-15T22:03:55.093Z,1.20
2023-04-15T22:06:24.771Z,1.67
2023-04-15T22:08:57.815Z,2.20
2023-04-15T22:11:29.513Z,1.55
2023-04-15T22:13:59.819Z,1.35
2023-04-15T22:16:27.885Z,1.50
2023-04-15T22:18:55.657Z,1.40
2023-04-15T22:21:23.181Z,1.50
2023-04-15T22:23:51.303Z,1.40
2023-04-15T22:26:22.016Z,1.52
2023-04-15T22:28:49.363Z,1.50
2023-04-15T22:31:16.741Z,1.35
2023-04-15T22:33:44.130Z,1.33
2023-04-15T22:36:13.799Z,1.50
2023-04-15T22:38:41.204Z,1.20
2023-04-15T22:41:09.097Z,1.40
2023-04-15T22:43:36.774Z,1.20
2023-04-15T22:46:04.066Z,1.50
2023-04-15T22:48:31.497Z,1.45
2023-04-15T22:50:58.824Z,1.20
2023-04-15T22:53:26.408Z,1.55
2023-04-15T22:55:54.035Z,1.23
2023-04-15T22:58:26.017Z,1.60
2023-04-15T23:00:53.606Z,1.30
2023-04-15T23:03:21.067Z,1.35
2023-04-15T23:05:51.066Z,1.33
2023-04-15T23:08:20.914Z,1.60
2023-04-15T23:10:48.103Z,1.48
2023-04-15T23:13:16.283Z,1.30
2023-04-15T23:15:43.437Z,1.38
2023-04-15T23:18:10.957Z,1.35
2023-04-15T23:20:38.505Z,1.30
2023-04-15T23:23:05.874Z,1.10
2023-04-15T23:25:33.125Z,1.27
2023-04-15T23:28:00.780Z,1.50
2023-04-15T23:30:28.118Z,1.35
2023-04-15T23:33:00.852Z,1.40
2023-04-15T23:35:31.130Z,1.58
2023-04-15T23:37:58.430Z,1.63
2023-04-15T23:40:26.017Z,1.58
2023-04-15T23:42:55.562Z,1.40
2023-04-15T23:45:25.391Z,1.52
2023-04-15T23:47:52.812Z,1.50
2023-04-15T23:50:20.049Z,1.30
2023-04-15T23:52:49.388Z,1.40
2023-04-15T23:55:19.143Z,1.77
2023-04-15T23:57:47.206Z,1.45
